createdAt,value
2023-01-19T00:03:18.041Z,98682.31
2023-01-19T00:08:22.859Z,98707.91
2023-01-19T00:13:27.865Z,98677.94
2023-01-19T00:18:30.973Z,98676.78
2023-01-19T00:23:35.816Z,98665.97
2023-01-19T00:28:39.232Z,98672.34
2023-01-19T00:33:42.692Z,98663.78
2023-01-19T00:38:47.515Z,98667.97
2023-01-19T00:43:50.980Z,98655.75
2023-01-19T00:48:54.269Z,98655.47
2023-01-19T00:54:00.000Z,98653.09
2023-01-19T00:59:03.528Z,98653.31
2023-01-19T01:04:07.030Z,98631.22
2023-01-19T01:09:13.094Z,98652.38
2023-01-19T01:14:16.616Z,98649.66
2023-01-19T01:19:20.558Z,98656.59
2023-01-19T01:24:25.338Z,98639.75
2023-01-19T01:29:28.895Z,98656.28
2023-01-19T01:34:32.243Z,98640.91
2023-01-19T01:39:37.123Z,98637.75
2023-01-19T01:44:50.054Z,98646.41
2023-01-19T01:49:57.761Z,98647.88
2023-01-19T01:55:06.962Z,98658.94
2023-01-19T02:00:12.223Z,98668.31
2023-01-19T02:05:21.231Z,98643.69
2023-01-19T02:10:43.329Z,98657.66
2023-01-19T02:15:46.826Z,98634.44
2023-01-19T02:21:04.786Z,98633.63
2023-01-19T02:26:12.054Z,98631.78
2023-01-19T02:31:16.371Z,98640.28
2023-01-19T02:36:26.097Z,98635.16
2023-01-19T02:41:37.373Z,98640.38
2023-01-19T02:46:41.203Z,98638.56
2023-01-19T02:51:45.416Z,98638.56
2023-01-19T02:57:15.657Z,98630.16
2023-01-19T03:02:33.370Z,98660.59
2023-01-19T03:07:50.685Z,98645.28
2023-01-19T03:13:04.209Z,98630.13
2023-01-19T03:18:10.944Z,98666.63
2023-01-19T03:23:16.618Z,98694.16
2023-01-19T03:28:24.305Z,98683.34
2023-01-19T03:33:31.550Z,98672.47
2023-01-19T03:38:38.117Z,98661.03
2023-01-19T03:43:44.581Z,98644.66
2023-01-19T03:48:49.802Z,98698.75
2023-01-19T03:53:53.200Z,98718.81
2023-01-19T03:58:57.941Z,98738.50
2023-01-19T04:04:01.428Z,98722.50
2023-01-19T04:09:05.038Z,98743.84
2023-01-19T04:14:09.958Z,98732.63
2023-01-19T04:19:13.608Z,98740.97
2023-01-19T04:24:16.963Z,98740.88
2023-01-19T04:29:21.844Z,98747.06
2023-01-19T04:34:25.296Z,98742.50
2023-01-19T04:39:28.800Z,98736.59
2023-01-19T04:44:33.706Z,98750.69
2023-01-19T04:49:37.841Z,98788.06
2023-01-19T04:54:41.258Z,98798.50
2023-01-19T04:59:46.111Z,98788.81
2023-01-19T05:04:49.363Z,98807.44
2023-01-19T05:09:52.985Z,98821.31
2023-01-19T05:14:57.800Z,98805.22
2023-01-19T05:20:01.129Z,98811.94
2023-01-19T05:25:05.020Z,98808.00
2023-01-19T05:30:11.457Z,98801.28
2023-01-19T05:35:20.109Z,98813.16
2023-01-19T05:40:28.898Z,98814.22
2023-01-19T05:45:34.087Z,98829.03
2023-01-19T05:50:37.426Z,98839.25
2023-01-19T05:55:40.771Z,98858.16
2023-01-19T06:00:45.505Z,98854.97
2023-01-19T06:05:49.057Z,98853.34
2023-01-19T06:10:52.540Z,98873.88
2023-01-19T06:16:01.448Z,98885.44
2023-01-19T06:21:07.548Z,98901.28
2023-01-19T06:26:10.985Z,98900.59
2023-01-19T06:31:16.002Z,98908.19
2023-01-19T06:36:19.581Z,98912.69
2023-01-19T06:41:22.895Z,98915.41
2023-01-19T06:46:27.614Z,98910.88
2023-01-19T06:51:33.233Z,98912.88
2023-01-19T06:56:36.519Z,98899.97
2023-01-19T07:01:41.587Z,98912.19
2023-01-19T07:06:45.238Z,98900.69
2023-01-19T07:11:49.960Z,98922.25
2023-01-19T07:16:55.004Z,98932.53
2023-01-19T07:21:58.773Z,98925.88
2023-01-19T07:27:02.340Z,98942.91
2023-01-19T07:32:07.681Z,98930.25
2023-01-19T07:37:11.343Z,98942.28
2023-01-19T07:42:14.733Z,98947.69
2023-01-19T07:47:20.107Z,98957.84
2023-01-19T07:52:23.597Z,98981.03
2023-01-19T07:57:26.916Z,98976.72
2023-01-19T08:02:32.022Z,98993.78
2023-01-19T08:07:35.431Z,98963.25
2023-01-19T08:12:38.760Z,98993.06
2023-01-19T08:17:44.207Z,99012.06
2023-01-19T08:22:48.949Z,99011.31
2023-01-19T08:27:55.051Z,99033.94
2023-01-19T08:33:04.813Z,99039.41
2023-01-19T08:38:09.771Z,99040.28
2023-01-19T08:43:13.856Z,99044.84
2023-01-19T08:48:22.219Z,99032.72
2023-01-19T08:53:25.768Z,99027.19
2023-01-19T08:58:29.606Z,99019.75
2023-01-19T09:03:34.476Z,99022.31
2023-01-19T09:08:38.739Z,99002.47
2023-01-19T09:13:42.776Z,99000.00
2023-01-19T09:18:47.528Z,98977.75
2023-01-19T09:23:50.941Z,98984.75
2023-01-19T09:28:54.425Z,98981.00
2023-01-19T09:33:59.205Z,98979.44
2023-01-19T09:39:03.060Z,98977.56
2023-01-19T09:44:09.676Z,98982.31
2023-01-19T09:49:17.777Z,99000.06
2023-01-19T09:54:25.520Z,99005.41
2023-01-19T09:59:31.534Z,99034.56
2023-01-19T10:04:41.411Z,99004.28
2023-01-19T10:09:59.178Z,99022.47
2023-01-19T10:15:12.560Z,99037.88
2023-01-19T10:20:26.226Z,99036.88
2023-01-19T10:25:29.977Z,99022.84
2023-01-19T10:30:33.819Z,99015.56
2023-01-19T10:35:39.129Z,99021.22
2023-01-19T10:40:49.780Z,99025.84
2023-01-19T10:45:53.147Z,99031.66
2023-01-19T10:51:05.995Z,99029.91
2023-01-19T10:56:18.687Z,99058.44
2023-01-19T11:01:24.575Z,99015.41
2023-01-19T11:06:31.287Z,99007.16
2023-01-19T11:11:46.680Z,99021.97
2023-01-19T11:16:53.193Z,99042.44
2023-01-19T11:22:12.627Z,99064.69
2023-01-19T11:27:18.563Z,99057.00
2023-01-19T11:32:23.681Z,99061.03
2023-01-19T11:37:31.734Z,99058.59
2023-01-19T11:42:37.328Z,99070.38
2023-01-19T11:47:44.260Z,99060.91
2023-01-19T11:52:53.613Z,99075.50
2023-01-19T11:57:57.579Z,99083.78
2023-01-19T12:03:06.912Z,99085.00
2023-01-19T12:08:16.941Z,99079.78
2023-01-19T12:13:23.831Z,99080.03
2023-01-19T12:18:32.968Z,99107.00
2023-01-19T12:23:55.021Z,99118.66
2023-01-19T12:29:01.677Z,99120.03
2023-01-19T12:34:36.203Z,99118.13
2023-01-19T12:39:50.385Z,99125.44
2023-01-19T12:45:08.212Z,99121.22
2023-01-19T12:50:19.299Z,99119.03
2023-01-19T12:55:26.069Z,99142.63
2023-01-19T13:00:33.557Z,99098.97
2023-01-19T13:05:58.372Z,99120.47
2023-01-19T13:11:24.355Z,99125.81
2023-01-19T13:17:00.406Z,99142.22
2023-01-19T13:23:04.952Z,99138.66
2023-01-19T13:28:17.565Z,99127.41
2023-01-19T13:33:23.664Z,99102.69
2023-01-19T13:38:29.337Z,99104.34
2023-01-19T13:43:38.698Z,99111.03
2023-01-19T13:48:53.624Z,99117.09
2023-01-19T13:53:58.232Z,99111.69
2023-01-19T13:59:11.989Z,99124.25
2023-01-19T14:04:30.743Z,99139.81
2023-01-19T14:09:34.206Z,99136.56
2023-01-19T14:14:39.861Z,99136.28
2023-01-19T14:19:50.251Z,99178.94
2023-01-19T14:24:53.796Z,99171.16
2023-01-19T14:30:16.554Z,99194.38
2023-01-19T14:35:26.201Z,99225.28
2023-01-19T14:40:31.168Z,99212.44
2023-01-19T14:45:36.583Z,99215.31
2023-01-19T14:50:51.013Z,99192.25
2023-01-19T14:56:07.041Z,99172.88
2023-01-19T15:01:12.048Z,99157.50
2023-01-19T15:06:18.115Z,99152.09
2023-01-19T15:11:24.973Z,99157.41
2023-01-19T15:16:33.033Z,99147.25
2023-01-19T15:21:36.481Z,99151.41
2023-01-19T15:26:41.367Z,99161.91
2023-01-19T15:31:45.818Z,99173.09
2023-01-19T15:36:49.349Z,99169.34
2023-01-19T15:41:52.691Z,99166.66
2023-01-19T15:46:57.969Z,99154.19
2023-01-19T15:52:01.585Z,99152.97
2023-01-19T15:57:05.156Z,99152.75
2023-01-19T16:02:11.313Z,99158.00
2023-01-19T16:07:14.858Z,99148.41
2023-01-19T16:12:18.188Z,99150.34
2023-01-19T16:17:23.168Z,99136.44
2023-01-19T16:22:26.680Z,99131.78
2023-01-19T16:27:30.580Z,99133.31
2023-01-19T16:32:36.582Z,99122.59
2023-01-19T16:37:40.144Z,99109.56
2023-01-19T16:42:43.471Z,99097.75
2023-01-19T16:47:50.819Z,99101.97
2023-01-19T16:52:57.674Z,99106.91
2023-01-19T16:58:01.161Z,99124.59
2023-01-19T17:03:06.119Z,99133.84
2023-01-19T17:08:09.727Z,99128.91
2023-01-19T17:13:13.066Z,99127.50
2023-01-19T17:18:17.907Z,99122.09
2023-01-19T17:23:21.370Z,99101.06
2023-01-19T17:28:25.084Z,99115.34
2023-01-19T17:33:29.855Z,99106.03
2023-01-19T17:38:33.445Z,99112.59
2023-01-19T17:43:36.858Z,99106.84
2023-01-19T17:48:41.900Z,99099.53
2023-01-19T17:53:45.058Z,99114.66
2023-01-19T17:58:50.974Z,99104.69
2023-01-19T18:03:56.318Z,99109.28
2023-01-19T18:09:00.284Z,99088.47
2023-01-19T18:14:03.700Z,99088.78
2023-01-19T18:19:10.645Z,99095.88
2023-01-19T18:24:14.095Z,99081.97
2023-01-19T18:29:20.657Z,99060.44
2023-01-19T18:34:25.388Z,99074.28
2023-01-19T18:39:31.247Z,99063.16
2023-01-19T18:44:34.567Z,99075.16
2023-01-19T18:49:39.491Z,99078.84
2023-01-19T18:54:42.539Z,99085.25
2023-01-19T18:59:49.023Z,99079.06
2023-01-19T19:04:53.795Z,99077.66
2023-01-19T19:09:57.234Z,99068.16
2023-01-19T19:15:00.829Z,99068.06
2023-01-19T19:20:05.993Z,99065.84
2023-01-19T19:25:10.214Z,99076.00
2023-01-19T19:30:15.968Z,99068.50
2023-01-19T19:35:21.454Z,99064.28
2023-01-19T19:40:25.239Z,99085.66
2023-01-19T19:45:28.556Z,99077.16
2023-01-19T19:50:33.433Z,99065.53
2023-01-19T19:55:36.491Z,99059.28
2023-01-19T20:00:39.899Z,99066.84
2023-01-19T20:05:45.047Z,99052.50
2023-01-19T20:10:48.528Z,99063.28
2023-01-19T20:15:52.715Z,99058.69
2023-01-19T20:20:57.672Z,99043.13
2023-01-19T20:26:05.668Z,99026.81
2023-01-19T20:31:16.975Z,99031.47
2023-01-19T20:36:24.446Z,99027.06
2023-01-19T20:41:29.891Z,99031.63
2023-01-19T20:46:33.226Z,99039.44
2023-01-19T20:51:45.334Z,99035.41
2023-01-19T20:56:49.009Z,99045.38
2023-01-19T21:01:52.639Z,99036.88
2023-01-19T21:06:57.480Z,99046.38
2023-01-19T21:12:00.974Z,99040.88
2023-01-19T21:17:04.326Z,99044.19
2023-01-19T21:22:19.375Z,99045.16
2023-01-19T21:27:22.570Z,99045.72
2023-01-19T21:32:27.526Z,99042.78
2023-01-19T21:37:32.236Z,99033.66
2023-01-19T21:42:35.662Z,99041.94
2023-01-19T21:47:39.053Z,99032.97
2023-01-19T21:52:44.435Z,99032.22
2023-01-19T21:57:47.763Z,99039.97
2023-01-19T22:03:03.071Z,99026.22
2023-01-19T22:08:09.778Z,99032.47
2023-01-19T22:13:13.238Z,99024.81
2023-01-19T22:18:16.669Z,99036.25
2023-01-19T22:23:21.377Z,99039.19
2023-01-19T22:28:24.856Z,99039.63
2023-01-19T22:33:29.498Z,99034.56
2023-01-19T22:38:34.201Z,99028.47
2023-01-19T22:43:39.620Z,99022.41
2023-01-19T22:48:42.601Z,99031.03
2023-01-19T22:53:47.944Z,99033.66
2023-01-19T22:58:51.386Z,99032.03
2023-01-19T23:03:55.347Z,99031.22
2023-01-19T23:09:02.767Z,99035.94
2023-01-19T23:14:07.563Z,99025.97
2023-01-19T23:19:12.837Z,99032.13
2023-01-19T23:24:17.960Z,99033.91
2023-01-19T23:29:21.492Z,99038.06
2023-01-19T23:34:24.947Z,99040.53
2023-01-19T23:39:29.955Z,99036.59
2023-01-19T23:44:35.238Z,99040.50
2023-01-19T23:49:39.911Z,99040.84
2023-01-19T23:54:45.025Z,99053.88
2023-01-19T23:59:48.441Z,99050.69
